This is the latest recevied weather packets stored in our database for station/object OE5HCE. If no packets are shown the sender has not sent any weather packets the latest 10 day(s).
| Time | Temp. | Humidity | Pressure | Rain* | Wind** | Luminosity | Snow |
|---|---|---|---|---|---|---|---|
| 1787669126 | 18.33° C | 76% | 1015 hPa | 0 mm | - | 91 W/m² | - |
| 1787668228 | 18.89° C | 76% | 1014.7 hPa | 0 mm | - | 149 W/m² | - |
| 1787667321 | 18.89° C | 74% | 1014.5 hPa | 0 mm | - | 139 W/m² | - |
| 1787666432 | 19.44° C | 72% | 1014.2 hPa | 0 mm | - | 116 W/m² | - |
| 1787665521 | 19.44° C | 71% | 1014 hPa | 0 mm | - | 137 W/m² | - |
| 1787664625 | 20° C | 68% | 1013.9 hPa | 0 mm | - | 151 W/m² | - |
| 1787663720 | 20.56° C | 68% | 1013.5 hPa | 0 mm | - | 176 W/m² | - |
| 1787662819 | 21.11° C | 66% | 1013.4 hPa | 0 mm | - | 200 W/m² | - |
| 1787661917 | 20.56° C | 66% | 1013.2 hPa | 0 mm | - | 237 W/m² | - |
| 1787661016 | 21.11° C | 65% | 1013.3 hPa | 0 mm | - | 243 W/m² | - |
| 1787660120 | 21.67° C | 64% | 1013.1 hPa | 0 mm | - | 264 W/m² | - |
| 1787659215 | 21.67° C | 64% | 1012.9 hPa | 0 mm | - | 338 W/m² | - |
| 1787658314 | 22.22° C | 63% | 1012.8 hPa | 0 mm | - | 290 W/m² | - |
| 1787657414 | 22.22° C | 61% | 1012.6 hPa | 0 mm | - | 508 W/m² | - |
| 1787656523 | 22.78° C | 61% | 1012.5 hPa | 0 mm | - | 684 W/m² | - |
| 1787655610 | 22.78° C | 62% | 1012.4 hPa | 0 mm | - | 654 W/m² | - |
| 1787654708 | 22.22° C | 60% | 1012.4 hPa | 0 mm | - | 744 W/m² | - |
| 1787653811 | 21.67° C | 60% | 1012.3 hPa | 0 mm | - | 821 W/m² | - |
| 1787652902 | 21.11° C | 61% | 1012.3 hPa | 0 mm | - | 483 W/m² | - |
| 1787652060 | 20.56° C | 61% | 1012.2 hPa | 0 mm | - | 374 W/m² | - |
| 1787651160 | 20° C | 61% | 1012.3 hPa | 0 mm | - | 538 W/m² | - |
| 1787650253 | 19.44° C | 63% | 1012.3 hPa | 0 mm | - | 483 W/m² | - |
| 1787649350 | 18.89° C | 65% | 1012.2 hPa | 0 mm | - | 287 W/m² | - |
| 1787648459 | 18.33° C | 67% | 1011.2 hPa | 0 mm | - | 236 W/m² | - |
| 1787647544 | 18.33° C | 68% | 1011.1 hPa | 0 mm | - | 199 W/m² | - |
* Rain latest hour (hover to see other rain measurements)
** Current wind speed in m/s (hover to see current wind gust speed)